sensor_id;sensor_type;location;lat;lon;timestamp;P1;durP1;ratioP1;P2;durP2;ratioP2
40150;SDS011;25866;52.420;10.640;2023-03-01T00:01:15;13.07;;;5.13;;
40150;SDS011;25866;52.420;10.640;2023-03-01T00:03:43;9.93;;;4.60;;
40150;SDS011;25866;52.420;10.640;2023-03-01T00:06:09;10.00;;;5.00;;
40150;SDS011;25866;52.420;10.640;2023-03-01T00:08:35;10.03;;;4.70;;
40150;SDS011;25866;52.420;10.640;2023-03-01T00:11:01;10.87;;;4.73;;
40150;SDS011;25866;52.420;10.640;2023-03-01T00:13:30;8.27;;;4.60;;
40150;SDS011;25866;52.420;10.640;2023-03-01T00:15:56;6.57;;;3.97;;
40150;SDS011;25866;52.420;10.640;2023-03-01T00:18:22;6.73;;;4.00;;
40150;SDS011;25866;52.420;10.640;2023-03-01T00:20:54;6.27;;;3.93;;
40150;SDS011;25866;52.420;10.640;2023-03-01T00:23:20;8.93;;;3.87;;
40150;SDS011;25866;52.420;10.640;2023-03-01T00:25:47;8.40;;;4.10;;
40150;SDS011;25866;52.420;10.640;2023-03-01T00:28:12;9.37;;;3.90;;
40150;SDS011;25866;52.420;10.640;2023-03-01T00:30:38;9.20;;;4.63;;
40150;SDS011;25866;52.420;10.640;2023-03-01T00:33:04;10.53;;;3.60;;
40150;SDS011;25866;52.420;10.640;2023-03-01T00:35:31;9.77;;;4.40;;
40150;SDS011;25866;52.420;10.640;2023-03-01T00:37:58;9.33;;;3.90;;
40150;SDS011;25866;52.420;10.640;2023-03-01T00:40:24;6.77;;;4.17;;
40150;SDS011;25866;52.420;10.640;2023-03-01T00:42:50;6.87;;;3.77;;
40150;SDS011;25866;52.420;10.640;2023-03-01T00:45:16;11.20;;;4.43;;
40150;SDS011;25866;52.420;10.640;2023-03-01T00:47:42;6.43;;;3.90;;
40150;SDS011;25866;52.420;10.640;2023-03-01T00:50:09;7.43;;;4.10;;
40150;SDS011;25866;52.420;10.640;2023-03-01T00:52:36;8.20;;;3.93;;
40150;SDS011;25866;52.420;10.640;2023-03-01T00:55:02;8.17;;;4.20;;
40150;SDS011;25866;52.420;10.640;2023-03-01T00:57:29;7.30;;;4.13;;
40150;SDS011;25866;52.420;10.640;2023-03-01T00:59:54;5.80;;;3.60;;
40150;SDS011;25866;52.420;10.640;2023-03-01T01:02:20;6.07;;;3.40;;
40150;SDS011;25866;52.420;10.640;2023-03-01T01:04:46;7.67;;;3.57;;
40150;SDS011;25866;52.420;10.640;2023-03-01T01:07:14;8.20;;;3.80;;
40150;SDS011;25866;52.420;10.640;2023-03-01T01:09:41;7.37;;;3.50;;
40150;SDS011;25866;52.420;10.640;2023-03-01T01:12:07;7.80;;;3.90;;
40150;SDS011;25866;52.420;10.640;2023-03-01T01:14:33;5.30;;;3.40;;
40150;SDS011;25866;52.420;10.640;2023-03-01T01:17:00;7.13;;;3.90;;
40150;SDS011;25866;52.420;10.640;2023-03-01T01:19:26;7.63;;;3.83;;
40150;SDS011;25866;52.420;10.640;2023-03-01T01:21:52;8.50;;;3.90;;
40150;SDS011;25866;52.420;10.640;2023-03-01T01:24:18;5.00;;;3.50;;
40150;SDS011;25866;52.420;10.640;2023-03-01T01:26:45;7.20;;;4.00;;
40150;SDS011;25866;52.420;10.640;2023-03-01T01:29:11;6.47;;;3.80;;
40150;SDS011;25866;52.420;10.640;2023-03-01T01:31:38;5.80;;;3.90;;
40150;SDS011;25866;52.420;10.640;2023-03-01T01:34:06;8.03;;;3.93;;
40150;SDS011;25866;52.420;10.640;2023-03-01T01:36:33;7.90;;;4.30;;
40150;SDS011;25866;52.420;10.640;2023-03-01T01:39:00;6.77;;;3.33;;
40150;SDS011;25866;52.420;10.640;2023-03-01T01:41:26;8.60;;;3.67;;
40150;SDS011;25866;52.420;10.640;2023-03-01T01:46:42;6.77;;;3.53;;
40150;SDS011;25866;52.420;10.640;2023-03-01T01:49:42;7.17;;;3.83;;
40150;SDS011;25866;52.420;10.640;2023-03-01T01:52:21;5.77;;;3.90;;
40150;SDS011;25866;52.420;10.640;2023-03-01T01:57:24;5.40;;;3.40;;
40150;SDS011;25866;52.420;10.640;2023-03-01T02:00:00;10.23;;;3.77;;
40150;SDS011;25866;52.420;10.640;2023-03-01T02:02:28;7.53;;;3.97;;
40150;SDS011;25866;52.420;10.640;2023-03-01T02:05:03;5.50;;;3.57;;
40150;SDS011;25866;52.420;10.640;2023-03-01T02:07:41;7.23;;;3.70;;
40150;SDS011;25866;52.420;10.640;2023-03-01T02:10:08;5.17;;;3.03;;
40150;SDS011;25866;52.420;10.640;2023-03-01T02:12:34;5.47;;;3.77;;
40150;SDS011;25866;52.420;10.640;2023-03-01T02:15:01;5.20;;;3.60;;
40150;SDS011;25866;52.420;10.640;2023-03-01T02:17:28;6.50;;;3.80;;
40150;SDS011;25866;52.420;10.640;2023-03-01T02:22:44;7.67;;;4.03;;
40150;SDS011;25866;52.420;10.640;2023-03-01T02:25:26;7.77;;;4.47;;
40150;SDS011;25866;52.420;10.640;2023-03-01T02:28:31;6.13;;;3.70;;
40150;SDS011;25866;52.420;10.640;2023-03-01T02:30:58;7.30;;;3.90;;
40150;SDS011;25866;52.420;10.640;2023-03-01T02:33:43;6.77;;;3.70;;
40150;SDS011;25866;52.420;10.640;2023-03-01T02:36:20;6.80;;;4.13;;
40150;SDS011;25866;52.420;10.640;2023-03-01T02:38:52;6.93;;;4.07;;
40150;SDS011;25866;52.420;10.640;2023-03-01T02:41:21;6.43;;;4.30;;
40150;SDS011;25866;52.420;10.640;2023-03-01T02:43:48;7.07;;;4.37;;
40150;SDS011;25866;52.420;10.640;2023-03-01T02:46:15;8.73;;;3.83;;
40150;SDS011;25866;52.420;10.640;2023-03-01T02:48:46;6.87;;;4.40;;
40150;SDS011;25866;52.420;10.640;2023-03-01T02:56:40;6.80;;;4.07;;
40150;SDS011;25866;52.420;10.640;2023-03-01T02:59:08;6.87;;;4.00;;
40150;SDS011;25866;52.420;10.640;2023-03-01T03:01:35;6.03;;;4.03;;
40150;SDS011;25866;52.420;10.640;2023-03-01T03:04:04;6.73;;;4.20;;
40150;SDS011;25866;52.420;10.640;2023-03-01T03:06:31;6.83;;;4.03;;
40150;SDS011;25866;52.420;10.640;2023-03-01T03:08:57;7.00;;;4.27;;
40150;SDS011;25866;52.420;10.640;2023-03-01T03:11:23;6.03;;;4.13;;
40150;SDS011;25866;52.420;10.640;2023-03-01T03:13:48;7.20;;;3.97;;
40150;SDS011;25866;52.420;10.640;2023-03-01T03:16:14;5.60;;;3.50;;
40150;SDS011;25866;52.420;10.640;2023-03-01T03:18:40;5.60;;;4.03;;
40150;SDS011;25866;52.420;10.640;2023-03-01T03:21:10;6.13;;;4.00;;
40150;SDS011;25866;52.420;10.640;2023-03-01T03:23:36;6.63;;;4.30;;
40150;SDS011;25866;52.420;10.640;2023-03-01T03:26:03;7.43;;;3.70;;
40150;SDS011;25866;52.420;10.640;2023-03-01T03:28:31;6.23;;;4.03;;
40150;SDS011;25866;52.420;10.640;2023-03-01T03:30:57;6.13;;;4.00;;
40150;SDS011;25866;52.420;10.640;2023-03-01T03:33:23;6.80;;;4.10;;
40150;SDS011;25866;52.420;10.640;2023-03-01T03:35:50;8.70;;;4.27;;
40150;SDS011;25866;52.420;10.640;2023-03-01T03:38:18;7.27;;;4.17;;
40150;SDS011;25866;52.420;10.640;2023-03-01T03:40:45;6.33;;;3.80;;
40150;SDS011;25866;52.420;10.640;2023-03-01T03:43:14;6.97;;;4.13;;
40150;SDS011;25866;52.420;10.640;2023-03-01T03:45:43;7.57;;;4.50;;
40150;SDS011;25866;52.420;10.640;2023-03-01T03:48:11;9.57;;;4.57;;
40150;SDS011;25866;52.420;10.640;2023-03-01T03:50:37;6.50;;;4.07;;
40150;SDS011;25866;52.420;10.640;2023-03-01T03:53:05;6.60;;;4.20;;
40150;SDS011;25866;52.420;10.640;2023-03-01T03:55:33;7.50;;;4.00;;
40150;SDS011;25866;52.420;10.640;2023-03-01T03:58:00;6.10;;;4.03;;
40150;SDS011;25866;52.420;10.640;2023-03-01T04:00:31;6.37;;;4.40;;
40150;SDS011;25866;52.420;10.640;2023-03-01T04:03:02;7.67;;;4.30;;
40150;SDS011;25866;52.420;10.640;2023-03-01T04:05:28;6.60;;;4.40;;
40150;SDS011;25866;52.420;10.640;2023-03-01T04:07:56;5.03;;;3.53;;
40150;SDS011;25866;52.420;10.640;2023-03-01T04:10:29;8.10;;;4.20;;
40150;SDS011;25866;52.420;10.640;2023-03-01T04:12:57;7.30;;;4.43;;
40150;SDS011;25866;52.420;10.640;2023-03-01T04:15:24;4.97;;;3.67;;
40150;SDS011;25866;52.420;10.640;2023-03-01T04:17:52;8.17;;;5.07;;
40150;SDS011;25866;52.420;10.640;2023-03-01T04:20:20;7.40;;;4.47;;
40150;SDS011;25866;52.420;10.640;2023-03-01T04:25:24;5.47;;;3.83;;
40150;SDS011;25866;52.420;10.640;2023-03-01T04:27:50;7.47;;;4.53;;
40150;SDS011;25866;52.420;10.640;2023-03-01T04:30:16;5.60;;;3.87;;
40150;SDS011;25866;52.420;10.640;2023-03-01T04:32:41;7.33;;;4.70;;
40150;SDS011;25866;52.420;10.640;2023-03-01T04:35:07;7.97;;;4.90;;
40150;SDS011;25866;52.420;10.640;2023-03-01T04:37:34;8.10;;;4.70;;
40150;SDS011;25866;52.420;10.640;2023-03-01T04:40:00;5.53;;;3.93;;
40150;SDS011;25866;52.420;10.640;2023-03-01T04:42:41;8.37;;;4.70;;
40150;SDS011;25866;52.420;10.640;2023-03-01T04:45:07;7.53;;;4.20;;
40150;SDS011;25866;52.420;10.640;2023-03-01T04:47:41;7.73;;;4.37;;
40150;SDS011;25866;52.420;10.640;2023-03-01T04:50:09;7.13;;;4.33;;
40150;SDS011;25866;52.420;10.640;2023-03-01T04:52:36;5.37;;;3.83;;
40150;SDS011;25866;52.420;10.640;2023-03-01T04:55:02;7.33;;;4.67;;
40150;SDS011;25866;52.420;10.640;2023-03-01T04:57:30;7.57;;;4.77;;
40150;SDS011;25866;52.420;10.640;2023-03-01T04:59:56;7.37;;;4.53;;
40150;SDS011;25866;52.420;10.640;2023-03-01T05:02:22;7.90;;;4.17;;
40150;SDS011;25866;52.420;10.640;2023-03-01T05:04:47;5.30;;;3.73;;
40150;SDS011;25866;52.420;10.640;2023-03-01T05:07:13;8.50;;;4.07;;
40150;SDS011;25866;52.420;10.640;2023-03-01T05:09:44;8.10;;;3.90;;
40150;SDS011;25866;52.420;10.640;2023-03-01T05:12:11;6.23;;;3.83;;
40150;SDS011;25866;52.420;10.640;2023-03-01T05:14:37;5.93;;;3.90;;
40150;SDS011;25866;52.420;10.640;2023-03-01T05:17:03;5.80;;;4.17;;
40150;SDS011;25866;52.420;10.640;2023-03-01T05:19:30;6.37;;;4.20;;
40150;SDS011;25866;52.420;10.640;2023-03-01T05:21:56;7.40;;;4.00;;
40150;SDS011;25866;52.420;10.640;2023-03-01T05:24:32;7.33;;;3.73;;
40150;SDS011;25866;52.420;10.640;2023-03-01T05:27:00;7.10;;;4.00;;
40150;SDS011;25866;52.420;10.640;2023-03-01T05:29:27;7.03;;;4.53;;
40150;SDS011;25866;52.420;10.640;2023-03-01T05:31:54;6.13;;;4.13;;
40150;SDS011;25866;52.420;10.640;2023-03-01T05:34:27;7.27;;;3.93;;
40150;SDS011;25866;52.420;10.640;2023-03-01T05:36:54;6.77;;;3.97;;
40150;SDS011;25866;52.420;10.640;2023-03-01T05:39:22;5.93;;;4.07;;
40150;SDS011;25866;52.420;10.640;2023-03-01T05:41:57;6.50;;;3.93;;
40150;SDS011;25866;52.420;10.640;2023-03-01T05:44:25;8.20;;;4.20;;
40150;SDS011;25866;52.420;10.640;2023-03-01T05:46:51;6.20;;;4.00;;
40150;SDS011;25866;52.420;10.640;2023-03-01T05:49:17;6.97;;;4.27;;
40150;SDS011;25866;52.420;10.640;2023-03-01T05:51:47;6.23;;;3.67;;
40150;SDS011;25866;52.420;10.640;2023-03-01T05:54:13;5.73;;;3.70;;
40150;SDS011;25866;52.420;10.640;2023-03-01T05:56:39;7.33;;;3.90;;
40150;SDS011;25866;52.420;10.640;2023-03-01T05:59:05;5.63;;;3.93;;
40150;SDS011;25866;52.420;10.640;2023-03-01T06:01:31;6.80;;;4.33;;
40150;SDS011;25866;52.420;10.640;2023-03-01T06:03:58;8.60;;;4.63;;
40150;SDS011;25866;52.420;10.640;2023-03-01T06:06:24;7.07;;;4.10;;
40150;SDS011;25866;52.420;10.640;2023-03-01T06:08:50;6.00;;;4.00;;
40150;SDS011;25866;52.420;10.640;2023-03-01T06:11:16;5.87;;;3.50;;
40150;SDS011;25866;52.420;10.640;2023-03-01T06:13:42;7.93;;;4.20;;
40150;SDS011;25866;52.420;10.640;2023-03-01T06:16:09;6.20;;;4.40;;
40150;SDS011;25866;52.420;10.640;2023-03-01T06:18:36;7.70;;;3.97;;
40150;SDS011;25866;52.420;10.640;2023-03-01T06:21:03;6.00;;;3.80;;
40150;SDS011;25866;52.420;10.640;2023-03-01T06:23:30;5.40;;;3.87;;
40150;SDS011;25866;52.420;10.640;2023-03-01T06:25:56;9.90;;;4.13;;
40150;SDS011;25866;52.420;10.640;2023-03-01T06:28:22;6.93;;;4.13;;
40150;SDS011;25866;52.420;10.640;2023-03-01T06:30:48;6.50;;;4.00;;
40150;SDS011;25866;52.420;10.640;2023-03-01T06:33:14;5.43;;;3.70;;
40150;SDS011;25866;52.420;10.640;2023-03-01T06:35:40;6.87;;;4.30;;
40150;SDS011;25866;52.420;10.640;2023-03-01T06:38:06;6.20;;;4.47;;
40150;SDS011;25866;52.420;10.640;2023-03-01T06:40:32;8.40;;;4.70;;
40150;SDS011;25866;52.420;10.640;2023-03-01T06:43:00;8.50;;;4.93;;
40150;SDS011;25866;52.420;10.640;2023-03-01T06:45:26;8.20;;;4.30;;
40150;SDS011;25866;52.420;10.640;2023-03-01T06:47:52;7.80;;;4.83;;
40150;SDS011;25866;52.420;10.640;2023-03-01T06:50:19;8.87;;;5.60;;
40150;SDS011;25866;52.420;10.640;2023-03-01T06:52:45;9.60;;;5.90;;
40150;SDS011;25866;52.420;10.640;2023-03-01T06:55:11;11.07;;;5.57;;
40150;SDS011;25866;52.420;10.640;2023-03-01T06:57:38;9.87;;;5.57;;
40150;SDS011;25866;52.420;10.640;2023-03-01T07:00:04;9.03;;;5.30;;
40150;SDS011;25866;52.420;10.640;2023-03-01T07:02:30;7.67;;;4.77;;
40150;SDS011;25866;52.420;10.640;2023-03-01T07:04:56;9.50;;;5.53;;
40150;SDS011;25866;52.420;10.640;2023-03-01T07:07:22;9.07;;;4.80;;
40150;SDS011;25866;52.420;10.640;2023-03-01T07:09:48;8.27;;;5.03;;
40150;SDS011;25866;52.420;10.640;2023-03-01T07:12:15;8.90;;;4.90;;
40150;SDS011;25866;52.420;10.640;2023-03-01T07:14:41;8.10;;;4.97;;
40150;SDS011;25866;52.420;10.640;2023-03-01T07:17:08;9.07;;;4.83;;
40150;SDS011;25866;52.420;10.640;2023-03-01T07:19:34;7.63;;;4.73;;
40150;SDS011;25866;52.420;10.640;2023-03-01T07:21:59;9.87;;;4.53;;
40150;SDS011;25866;52.420;10.640;2023-03-01T07:24:25;8.57;;;5.27;;
40150;SDS011;25866;52.420;10.640;2023-03-01T07:26:51;8.97;;;4.93;;
40150;SDS011;25866;52.420;10.640;2023-03-01T07:29:18;6.90;;;4.67;;
40150;SDS011;25866;52.420;10.640;2023-03-01T07:31:44;8.83;;;4.50;;
40150;SDS011;25866;52.420;10.640;2023-03-01T07:34:10;7.30;;;4.97;;
40150;SDS011;25866;52.420;10.640;2023-03-01T07:36:36;6.63;;;4.80;;
40150;SDS011;25866;52.420;10.640;2023-03-01T07:39:05;8.73;;;5.33;;
40150;SDS011;25866;52.420;10.640;2023-03-01T07:41:30;8.97;;;5.47;;
40150;SDS011;25866;52.420;10.640;2023-03-01T07:43:56;9.77;;;5.60;;
40150;SDS011;25866;52.420;10.640;2023-03-01T07:46:22;10.93;;;5.67;;
40150;SDS011;25866;52.420;10.640;2023-03-01T07:48:47;11.17;;;5.83;;
40150;SDS011;25866;52.420;10.640;2023-03-01T07:51:13;11.53;;;6.30;;
40150;SDS011;25866;52.420;10.640;2023-03-01T07:53:39;10.97;;;5.97;;
40150;SDS011;25866;52.420;10.640;2023-03-01T07:56:08;10.10;;;6.90;;
40150;SDS011;25866;52.420;10.640;2023-03-01T07:58:36;13.57;;;8.07;;
40150;SDS011;25866;52.420;10.640;2023-03-01T08:01:03;11.60;;;6.83;;
40150;SDS011;25866;52.420;10.640;2023-03-01T08:03:31;12.10;;;7.00;;
40150;SDS011;25866;52.420;10.640;2023-03-01T08:06:00;10.33;;;6.43;;
40150;SDS011;25866;52.420;10.640;2023-03-01T08:08:27;13.33;;;7.10;;
40150;SDS011;25866;52.420;10.640;2023-03-01T08:10:55;9.73;;;6.30;;
40150;SDS011;25866;52.420;10.640;2023-03-01T08:13:22;8.87;;;5.57;;
40150;SDS011;25866;52.420;10.640;2023-03-01T08:15:48;11.13;;;6.00;;
40150;SDS011;25866;52.420;10.640;2023-03-01T08:18:14;13.47;;;6.33;;
40150;SDS011;25866;52.420;10.640;2023-03-01T08:20:40;10.33;;;6.53;;
40150;SDS011;25866;52.420;10.640;2023-03-01T08:23:06;11.17;;;6.30;;
40150;SDS011;25866;52.420;10.640;2023-03-01T08:25:31;10.80;;;6.87;;
40150;SDS011;25866;52.420;10.640;2023-03-01T08:27:57;9.53;;;6.13;;
40150;SDS011;25866;52.420;10.640;2023-03-01T08:30:23;8.97;;;5.93;;
40150;SDS011;25866;52.420;10.640;2023-03-01T08:32:49;8.37;;;5.97;;
40150;SDS011;25866;52.420;10.640;2023-03-01T08:35:15;11.43;;;5.67;;
40150;SDS011;25866;52.420;10.640;2023-03-01T08:37:41;9.13;;;5.70;;
40150;SDS011;25866;52.420;10.640;2023-03-01T08:40:07;12.30;;;6.77;;
40150;SDS011;25866;52.420;10.640;2023-03-01T08:42:35;11.27;;;5.97;;
40150;SDS011;25866;52.420;10.640;2023-03-01T08:45:02;12.87;;;6.43;;
40150;SDS011;25866;52.420;10.640;2023-03-01T08:47:28;11.57;;;6.17;;
40150;SDS011;25866;52.420;10.640;2023-03-01T08:49:54;11.67;;;6.37;;
40150;SDS011;25866;52.420;10.640;2023-03-01T08:52:20;6.87;;;5.13;;
40150;SDS011;25866;52.420;10.640;2023-03-01T08:54:49;7.97;;;5.27;;
40150;SDS011;25866;52.420;10.640;2023-03-01T08:57:15;10.03;;;6.03;;
40150;SDS011;25866;52.420;10.640;2023-03-01T08:59:44;16.10;;;7.67;;
40150;SDS011;25866;52.420;10.640;2023-03-01T09:02:14;8.43;;;5.23;;
40150;SDS011;25866;52.420;10.640;2023-03-01T09:04:42;11.60;;;5.60;;
40150;SDS011;25866;52.420;10.640;2023-03-01T09:07:08;8.93;;;5.23;;
40150;SDS011;25866;52.420;10.640;2023-03-01T09:09:34;10.73;;;6.13;;
40150;SDS011;25866;52.420;10.640;2023-03-01T09:12:00;11.97;;;5.60;;
40150;SDS011;25866;52.420;10.640;2023-03-01T09:14:26;11.87;;;5.63;;
40150;SDS011;25866;52.420;10.640;2023-03-01T09:16:51;12.23;;;5.93;;
40150;SDS011;25866;52.420;10.640;2023-03-01T09:19:17;9.67;;;5.07;;
40150;SDS011;25866;52.420;10.640;2023-03-01T09:21:43;10.43;;;7.03;;
40150;SDS011;25866;52.420;10.640;2023-03-01T09:24:17;8.50;;;5.07;;
40150;SDS011;25866;52.420;10.640;2023-03-01T09:26:47;8.37;;;4.70;;
40150;SDS011;25866;52.420;10.640;2023-03-01T09:29:13;9.37;;;5.10;;
40150;SDS011;25866;52.420;10.640;2023-03-01T09:31:40;10.37;;;5.10;;
40150;SDS011;25866;52.420;10.640;2023-03-01T09:34:06;7.37;;;4.00;;
40150;SDS011;25866;52.420;10.640;2023-03-01T09:36:33;9.37;;;4.43;;
40150;SDS011;25866;52.420;10.640;2023-03-01T09:38:59;8.93;;;4.00;;
40150;SDS011;25866;52.420;10.640;2023-03-01T09:44:08;7.30;;;3.60;;
40150;SDS011;25866;52.420;10.640;2023-03-01T09:46:40;9.53;;;4.33;;
40150;SDS011;25866;52.420;10.640;2023-03-01T09:49:15;6.90;;;3.33;;
40150;SDS011;25866;52.420;10.640;2023-03-01T09:51:54;7.27;;;3.53;;
40150;SDS011;25866;52.420;10.640;2023-03-01T09:54:25;6.77;;;3.67;;
40150;SDS011;25866;52.420;10.640;2023-03-01T09:56:54;6.27;;;3.17;;
40150;SDS011;25866;52.420;10.640;2023-03-01T10:04:46;5.67;;;3.50;;
40150;SDS011;25866;52.420;10.640;2023-03-01T10:10:22;4.07;;;2.70;;
40150;SDS011;25866;52.420;10.640;2023-03-01T10:13:10;6.27;;;3.03;;
40150;SDS011;25866;52.420;10.640;2023-03-01T10:15:47;8.20;;;3.93;;
40150;SDS011;25866;52.420;10.640;2023-03-01T10:18:29;4.67;;;3.03;;
40150;SDS011;25866;52.420;10.640;2023-03-01T10:21:02;4.30;;;2.60;;
40150;SDS011;25866;52.420;10.640;2023-03-01T10:23:37;9.07;;;4.73;;
40150;SDS011;25866;52.420;10.640;2023-03-01T10:26:17;4.60;;;3.00;;
40150;SDS011;25866;52.420;10.640;2023-03-01T10:29:26;5.00;;;3.00;;
40150;SDS011;25866;52.420;10.640;2023-03-01T10:32:01;5.63;;;2.87;;
40150;SDS011;25866;52.420;10.640;2023-03-01T10:34:32;5.67;;;2.97;;
40150;SDS011;25866;52.420;10.640;2023-03-01T10:37:15;6.57;;;3.90;;
40150;SDS011;25866;52.420;10.640;2023-03-01T10:42:29;7.40;;;3.00;;
40150;SDS011;25866;52.420;10.640;2023-03-01T10:44:57;4.70;;;2.50;;
40150;SDS011;25866;52.420;10.640;2023-03-01T10:47:24;7.77;;;2.47;;
40150;SDS011;25866;52.420;10.640;2023-03-01T10:52:26;3.63;;;2.57;;
40150;SDS011;25866;52.420;10.640;2023-03-01T10:55:02;3.97;;;2.40;;
40150;SDS011;25866;52.420;10.640;2023-03-01T10:57:48;3.37;;;2.37;;
40150;SDS011;25866;52.420;10.640;2023-03-01T11:00:18;7.57;;;2.97;;
40150;SDS011;25866;52.420;10.640;2023-03-01T11:03:01;3.93;;;2.23;;
40150;SDS011;25866;52.420;10.640;2023-03-01T11:05:29;5.03;;;2.57;;
40150;SDS011;25866;52.420;10.640;2023-03-01T11:10:23;5.70;;;2.30;;
40150;SDS011;25866;52.420;10.640;2023-03-01T11:13:04;8.30;;;2.03;;
40150;SDS011;25866;52.420;10.640;2023-03-01T11:15:33;4.43;;;2.07;;
40150;SDS011;25866;52.420;10.640;2023-03-01T11:17:59;4.03;;;1.97;;
40150;SDS011;25866;52.420;10.640;2023-03-01T11:20:33;3.60;;;2.20;;
40150;SDS011;25866;52.420;10.640;2023-03-01T11:23:04;6.63;;;2.27;;
40150;SDS011;25866;52.420;10.640;2023-03-01T11:25:37;4.87;;;2.33;;
40150;SDS011;25866;52.420;10.640;2023-03-01T11:28:23;5.03;;;2.43;;
40150;SDS011;25866;52.420;10.640;2023-03-01T11:31:25;3.67;;;2.20;;
40150;SDS011;25866;52.420;10.640;2023-03-01T11:33:48;4.80;;;2.50;;
40150;SDS011;25866;52.420;10.640;2023-03-01T11:38:56;3.50;;;2.13;;
40150;SDS011;25866;52.420;10.640;2023-03-01T11:41:29;4.10;;;2.03;;
40150;SDS011;25866;52.420;10.640;2023-03-01T11:44:03;7.33;;;2.33;;
40150;SDS011;25866;52.420;10.640;2023-03-01T11:46:59;4.60;;;1.70;;
40150;SDS011;25866;52.420;10.640;2023-03-01T12:03:56;3.53;;;2.07;;
40150;SDS011;25866;52.420;10.640;2023-03-01T12:07:00;3.90;;;2.37;;
40150;SDS011;25866;52.420;10.640;2023-03-01T12:09:53;4.73;;;1.77;;
40150;SDS011;25866;52.420;10.640;2023-03-01T12:15:49;2.70;;;2.00;;
40150;SDS011;25866;52.420;10.640;2023-03-01T12:22:30;3.33;;;2.00;;
40150;SDS011;25866;52.420;10.640;2023-03-01T12:28:13;5.93;;;2.50;;
40150;SDS011;25866;52.420;10.640;2023-03-01T12:37:01;4.60;;;1.97;;
40150;SDS011;25866;52.420;10.640;2023-03-01T12:45:47;5.37;;;2.30;;
40150;SDS011;25866;52.420;10.640;2023-03-01T12:48:31;3.87;;;2.43;;
40150;SDS011;25866;52.420;10.640;2023-03-01T12:51:23;5.20;;;2.40;;
40150;SDS011;25866;52.420;10.640;2023-03-01T12:53:55;34.33;;;15.60;;
40150;SDS011;25866;52.420;10.640;2023-03-01T12:56:25;7.77;;;3.43;;
40150;SDS011;25866;52.420;10.640;2023-03-01T13:13:01;14.67;;;7.17;;
40150;SDS011;25866;52.420;10.640;2023-03-01T13:15:37;4.90;;;3.10;;
40150;SDS011;25866;52.420;10.640;2023-03-01T13:18:26;2.63;;;1.70;;
40150;SDS011;25866;52.420;10.640;2023-03-01T13:20:53;4.33;;;2.67;;
40150;SDS011;25866;52.420;10.640;2023-03-01T13:31:09;2.77;;;1.83;;
40150;SDS011;25866;52.420;10.640;2023-03-01T13:33:59;3.70;;;1.97;;
40150;SDS011;25866;52.420;10.640;2023-03-01T13:49:44;3.47;;;2.17;;
40150;SDS011;25866;52.420;10.640;2023-03-01T13:54:47;3.80;;;1.90;;
40150;SDS011;25866;52.420;10.640;2023-03-01T13:57:12;2.20;;;1.57;;
40150;SDS011;25866;52.420;10.640;2023-03-01T13:59:47;3.23;;;2.10;;
40150;SDS011;25866;52.420;10.640;2023-03-01T14:02:13;3.80;;;2.13;;
40150;SDS011;25866;52.420;10.640;2023-03-01T14:04:40;5.37;;;1.93;;
40150;SDS011;25866;52.420;10.640;2023-03-01T14:07:09;5.17;;;2.40;;
40150;SDS011;25866;52.420;10.640;2023-03-01T14:09:44;2.50;;;1.90;;
40150;SDS011;25866;52.420;10.640;2023-03-01T14:17:35;3.67;;;1.93;;
40150;SDS011;25866;52.420;10.640;2023-03-01T14:20:12;4.83;;;2.10;;
40150;SDS011;25866;52.420;10.640;2023-03-01T14:22:48;5.20;;;2.40;;
40150;SDS011;25866;52.420;10.640;2023-03-01T14:25:19;3.40;;;2.20;;
40150;SDS011;25866;52.420;10.640;2023-03-01T14:27:45;5.03;;;2.07;;
40150;SDS011;25866;52.420;10.640;2023-03-01T14:30:23;3.27;;;1.93;;
40150;SDS011;25866;52.420;10.640;2023-03-01T14:32:52;3.33;;;1.87;;
40150;SDS011;25866;52.420;10.640;2023-03-01T14:35:24;3.20;;;2.10;;
40150;SDS011;25866;52.420;10.640;2023-03-01T14:37:55;2.67;;;1.87;;
40150;SDS011;25866;52.420;10.640;2023-03-01T14:40:25;3.63;;;2.00;;
40150;SDS011;25866;52.420;10.640;2023-03-01T14:43:04;2.90;;;1.70;;
40150;SDS011;25866;52.420;10.640;2023-03-01T14:45:35;3.67;;;2.00;;
40150;SDS011;25866;52.420;10.640;2023-03-01T14:48:02;4.60;;;1.97;;
40150;SDS011;25866;52.420;10.640;2023-03-01T14:50:31;2.67;;;1.90;;
40150;SDS011;25866;52.420;10.640;2023-03-01T14:53:02;2.97;;;1.73;;
40150;SDS011;25866;52.420;10.640;2023-03-01T14:55:31;6.33;;;2.07;;
40150;SDS011;25866;52.420;10.640;2023-03-01T14:58:00;3.67;;;1.83;;
40150;SDS011;25866;52.420;10.640;2023-03-01T15:00:29;4.37;;;2.20;;
40150;SDS011;25866;52.420;10.640;2023-03-01T15:02:58;2.50;;;1.53;;
40150;SDS011;25866;52.420;10.640;2023-03-01T15:05:31;2.83;;;1.80;;
40150;SDS011;25866;52.420;10.640;2023-03-01T15:07:58;2.63;;;1.60;;
40150;SDS011;25866;52.420;10.640;2023-03-01T15:10:36;4.70;;;2.30;;
40150;SDS011;25866;52.420;10.640;2023-03-01T15:13:11;5.00;;;1.80;;
40150;SDS011;25866;52.420;10.640;2023-03-01T15:15:48;3.03;;;1.93;;
40150;SDS011;25866;52.420;10.640;2023-03-01T15:18:22;3.47;;;1.90;;
40150;SDS011;25866;52.420;10.640;2023-03-01T15:20:51;3.67;;;2.07;;
40150;SDS011;25866;52.420;10.640;2023-03-01T15:23:19;3.27;;;1.87;;
40150;SDS011;25866;52.420;10.640;2023-03-01T15:25:47;2.67;;;1.83;;
40150;SDS011;25866;52.420;10.640;2023-03-01T15:28:21;3.03;;;1.70;;
40150;SDS011;25866;52.420;10.640;2023-03-01T15:33:32;3.00;;;1.57;;
40150;SDS011;25866;52.420;10.640;2023-03-01T15:36:03;4.07;;;1.67;;
40150;SDS011;25866;52.420;10.640;2023-03-01T15:38:55;2.63;;;1.17;;
40150;SDS011;25866;52.420;10.640;2023-03-01T15:41:24;2.33;;;1.30;;
40150;SDS011;25866;52.420;10.640;2023-03-01T15:43:57;1.93;;;1.30;;
40150;SDS011;25866;52.420;10.640;2023-03-01T15:46:28;3.47;;;1.90;;
40150;SDS011;25866;52.420;10.640;2023-03-01T15:51:57;3.63;;;1.90;;
40150;SDS011;25866;52.420;10.640;2023-03-01T15:54:23;12.03;;;4.97;;
40150;SDS011;25866;52.420;10.640;2023-03-01T15:56:51;4.20;;;2.30;;
40150;SDS011;25866;52.420;10.640;2023-03-01T15:59:17;2.90;;;2.10;;
40150;SDS011;25866;52.420;10.640;2023-03-01T16:01:43;3.90;;;2.20;;
40150;SDS011;25866;52.420;10.640;2023-03-01T16:04:10;3.90;;;2.13;;
40150;SDS011;25866;52.420;10.640;2023-03-01T16:06:41;4.57;;;2.10;;
40150;SDS011;25866;52.420;10.640;2023-03-01T16:09:07;3.70;;;1.87;;
40150;SDS011;25866;52.420;10.640;2023-03-01T16:11:35;3.83;;;1.90;;
40150;SDS011;25866;52.420;10.640;2023-03-01T16:14:02;4.97;;;3.30;;
40150;SDS011;25866;52.420;10.640;2023-03-01T16:16:27;4.83;;;3.70;;
40150;SDS011;25866;52.420;10.640;2023-03-01T16:18:53;4.43;;;2.97;;
40150;SDS011;25866;52.420;10.640;2023-03-01T16:21:20;4.77;;;3.27;;
40150;SDS011;25866;52.420;10.640;2023-03-01T16:23:48;9.63;;;5.43;;
40150;SDS011;25866;52.420;10.640;2023-03-01T16:26:15;6.07;;;3.97;;
40150;SDS011;25866;52.420;10.640;2023-03-01T16:28:41;4.17;;;2.87;;
40150;SDS011;25866;52.420;10.640;2023-03-01T16:31:07;7.40;;;4.73;;
40150;SDS011;25866;52.420;10.640;2023-03-01T16:33:34;7.60;;;3.97;;
40150;SDS011;25866;52.420;10.640;2023-03-01T16:36:09;8.37;;;5.40;;
40150;SDS011;25866;52.420;10.640;2023-03-01T16:38:36;6.77;;;4.93;;
40150;SDS011;25866;52.420;10.640;2023-03-01T16:41:03;6.73;;;3.90;;
40150;SDS011;25866;52.420;10.640;2023-03-01T16:43:30;4.50;;;3.07;;
40150;SDS011;25866;52.420;10.640;2023-03-01T16:45:56;3.77;;;2.57;;
40150;SDS011;25866;52.420;10.640;2023-03-01T16:48:23;5.30;;;3.17;;
40150;SDS011;25866;52.420;10.640;2023-03-01T16:50:55;4.87;;;2.80;;